Data for 04/20/2018

Time Sea-Level Adjusted Pressure Absolute Pressure Temperature Relative Humidity Dew Point   
(mb) (inHg) (mb) (inHg) (C) (F) (%) (C) (F)
00:05 1019 30.09 848 25.04 6.4 43.6 39 -6.5 20.3
00:10 1019 30.09 848 25.04 7.1 44.7 41 -5.4 22.2
00:15 1019 30.09 848 25.04 6.4 43.4 45 -4.8 23.3
00:20 1019 30.09 848 25.04 6 42.7 44 -5.3 22.5
00:25 1019 30.09 849 25.07 5.6 42 49 -4.3 24.3
00:30 1019 30.09 849 25.07 4.8 40.7 51 -4.4 24.1
00:35 1019 30.09 849 25.07 4.7 40.5 51 -4.6 23.8
00:40 1019 30.09 849 25.07 4.6 40.3 52 -4.4 24.1
00:45 1019 30.09 849 25.07 4.4 39.9 52 -4.5 23.9
00:50 1019 30.09 849 25.07 4.3 39.8 52 -4.7 23.5
00:55 1019 30.09 849 25.07 4.4 40 53 -4.4 24.1
01:00 1020 30.12 849 25.07 4 39.2 54 -4.4 24.1
01:05 1020 30.12 849 25.07 3.9 38.9 55 -4.3 24.2
01:10 1020 30.12 849 25.07 3.9 39 55 -4.4 24
01:15 1020 30.12 849 25.07 3.8 38.9 55 -4.4 24.2
01:20 1020 30.12 849 25.07 3.9 39 54 -4.5 23.9
01:25 1020 30.12 849 25.07 4 39.2 55 -4.3 24.2
01:30 1020 30.12 849 25.07 3.8 38.8 56 -4.1 24.6
01:35 1020 30.12 849 25.07 3.6 38.4 57 -4.2 24.4
01:40 1020 30.12 849 25.07 3.7 38.7 55 -4.4 24.1
01:45 1020 30.12 849 25.07 4 39.1 55 -4.3 24.2
01:50 1020 30.12 849 25.07 3.8 38.8 55 -4.5 23.9
01:55 1020 30.12 849 25.07 4.2 39.5 53 -4.5 23.8
02:00 1020 30.12 849 25.07 4.3 39.7 54 -4.2 24.5
02:05 1020 30.12 849 25.07 3.9 39.1 56 -4.1 24.6
02:10 1020 30.12 849 25.07 3.7 38.7 56 -4.2 24.5
02:15 1020 30.12 849 25.07 3.6 38.5 57 -4.2 24.4
02:20 1020 30.12 849 25.07 3.8 38.8 56 -4.2 24.4
02:25 1020 30.12 849 25.07 3.8 38.8 56 -4.1 24.6
02:30 1020 30.12 849 25.07 3.6 38.6 57 -4.1 24.7
02:35 1020 30.12 849 25.07 3.6 38.4 57 -4.2 24.4
02:40 1020 30.12 849 25.07 3.7 38.7 56 -4.2 24.5
02:45 1020 30.12 849 25.07 3.8 38.9 56 -4.1 24.6
02:50 1020 30.12 849 25.07 4 39.2 55 -4.2 24.4
02:55 1020 30.12 849 25.07 4 39.2 56 -4 24.9
03:00 1020 30.12 849 25.07 3.6 38.6 58 -4 24.9
03:05 1020 30.12 849 25.07 3.6 38.5 56 -4.2 24.4
03:10 1020 30.12 849 25.07 3.7 38.7 56 -4.2 24.5
03:15 1020 30.12 849 25.07 3.6 38.5 57 -4 24.7
03:20 1020 30.12 849 25.07 3.4 38.2 58 -4.1 24.7
03:25 1020 30.12 849 25.07 3.5 38.3 58 -4 24.8
03:30 1020 30.12 849 25.07 3.3 38 59 -4 24.9
03:35 1020 30.12 849 25.07 3.3 37.9 59 -3.9 25
03:40 1020 30.12 849 25.07 3.1 37.6 61 -3.8 25.2
03:45 1020 30.12 849 25.07 3.1 37.6 59 -4.1 24.7
03:50 1020 30.12 849 25.07 3.3 38 59 -4 24.9
03:55 1020 30.12 849 25.07 3.2 37.8 60 -3.8 25.2
04:00 1020 30.12 849 25.07 3.1 37.5 61 -3.8 25.2
04:05 1020 30.12 849 25.07 2.9 37.2 62 -3.7 25.4
04:10 1020 30.12 849 25.07 2.7 36.8 63 -3.8 25.2
04:15 1020 30.12 849 25.07 2.7 36.9 62 -3.9 25
04:20 1020 30.12 849 25.07 2.8 37 63 -3.6 25.4
04:25 1020 30.12 849 25.07 2.7 36.8 62 -3.8 25.2
04:30 1020 30.12 849 25.07 2.9 37.2 59 -4.2 24.4
04:35 1020 30.12 849 25.07 3.2 37.7 62 -3.5 25.8
04:40 1020 30.12 849 25.07 2.7 36.9 62 -3.9 24.9
04:45 1020 30.12 850 25.1 2.7 36.8 62 -3.9 25
04:50 1020 30.12 850 25.1 2.6 36.6 63 -3.7 25.3
04:55 1020 30.12 850 25.1 2.2 35.9 63 -4.2 24.5
05:00 1020 30.12 850 25.1 2.2 36 64 -3.9 24.9
05:05 1020 30.12 850 25.1 2.1 35.7 64 -4 24.7
05:10 1020 30.12 850 25.1 2.1 35.8 64 -4 24.9
05:15 1020 30.12 849 25.07 2.1 35.9 64 -4.1 24.7
05:20 1020 30.12 849 25.07 2.1 35.7 66 -3.7 25.4
05:25 1020 30.12 849 25.07 1.7 35 65 -4.3 24.3
05:30 1020 30.12 849 25.07 2.2 35.9 64 -4 24.8
05:35 1020 30.12 849 25.07 2.6 36.7 63 -3.7 25.3
05:40 1020 30.12 849 25.07 2.5 36.4 63 -3.9 25
05:45 1020 30.12 850 25.1 2 35.5 65 -3.9 25
05:50 1020 30.12 850 25.1 1.6 35 67 -3.8 25.1
05:55 1020 30.12 850 25.1 1.4 34.6 68 -3.8 25.1
06:00 1021 30.15 850 25.1 1.4 34.5 68 -3.9 25
06:05 1021 30.15 850 25.1 1.5 34.6 68 -3.8 25.1
06:10 1021 30.15 850 25.1 1.4 34.5 68 -3.9 25
06:15 1021 30.15 850 25.1 1.2 34.1 69 -3.9 25
06:20 1021 30.15 850 25.1 1 33.8 70 -3.9 24.9
06:25 1021 30.15 850 25.1 0.8 33.5 70 -4 24.8
06:30 1021 30.15 850 25.1 0.9 33.6 69 -4.1 24.7
06:35 1021 30.15 850 25.1 1 33.8 69 -4 24.8
06:40 1021 30.15 850 25.1 1.3 34.3 68 -3.9 24.9
06:45 1021 30.15 850 25.1 1.2 34.2 69 -3.8 25.2
06:50 1021 30.15 850 25.1 1.3 34.3 68 -3.9 24.9
06:55 1021 30.15 850 25.1 1.4 34.6 68 -3.9 25.1
07:00 1021 30.15 850 25.1 1.2 34.2 69 -3.9 25
07:05 1021 30.15 850 25.1 1.2 34.2 68 -3.9 24.9
07:10 1021 30.15 850 25.1 1.3 34.4 68 -3.9 24.9
07:15 1021 30.15 850 25.1 1.5 34.7 67 -3.9 25.1
07:20 1021 30.15 851 25.13 1.7 35.1 67 -3.8 25.2
07:25 1021 30.15 851 25.13 1.9 35.5 66 -3.7 25.3
07:30 1022 30.18 851 25.13 2.2 36 65 -3.7 25.3
07:35 1022 30.18 851 25.13 2.5 36.5 64 -3.6 25.5
07:40 1022 30.18 851 25.13 2.7 36.9 63 -3.7 25.3
07:45 1022 30.18 851 25.13 2.9 37.3 62 -3.7 25.4
07:50 1022 30.18 851 25.13 3.3 37.9 60 -3.7 25.4
07:55 1022 30.18 851 25.13 3.6 38.6 60 -3.4 25.8
08:00 1022 30.18 851 25.13 3.9 39.1 59 -3.4 25.8
08:05 1022 30.18 851 25.13 4.1 39.5 58 -3.4 25.9
08:10 1022 30.18 851 25.13 4.7 40.5 56 -3.3 26.1
08:15 1022 30.18 851 25.13 4.8 40.6 56 -3.3 26.1
08:20 1022 30.18 851 25.13 5 40.9 56 -3.1 26.5
08:25 1022 30.18 851 25.13 5.3 41.6 55 -3 26.5
08:30 1022 30.18 851 25.13 6.1 43.1 50 -3.6 25.6
08:35 1022 30.18 851 25.13 6.8 44.2 48 -3.4 25.9
08:40 1022 30.18 851 25.13 7.1 44.9 47 -3.4 25.9
08:45 1022 30.18 851 25.13 7.5 45.4 47 -3.2 26.3
08:50 1022 30.18 851 25.13 8 46.4 44 -3.6 25.6
08:55 1022 30.18 851 25.13 8.1 46.6 44 -3.5 25.8
09:00 1022 30.18 851 25.13 8.1 46.6 42 -4.2 24.5
09:05 1022 30.18 851 25.13 8.3 47 42 -3.9 24.9
09:10 1022 30.18 851 25.13 8.3 46.9 43 -3.6 25.6
09:15 1022 30.18 851 25.13 8.1 46.5 45 -3.3 26.1
09:20 1022 30.18 851 25.13 8 46.4 43 -3.8 25.2
09:25 1022 30.18 851 25.13 8.6 47.5 43 -3.3 26
09:30 1022 30.18 851 25.13 9 48.1 43 -3 26.6
09:35 1022 30.18 851 25.13 9.3 48.7 42 -2.9 26.7
09:40 1022 30.18 851 25.13 9.6 49.4 41 -3.1 26.5
09:45 1022 30.18 851 25.13 9.6 49.3 41 -3 26.5
09:50 1022 30.18 851 25.13 10 49.9 40 -3 26.6
09:55 1022 30.18 851 25.13 10 50 39 -3.2 26.3
10:00 1022 30.18 851 25.13 10.2 50.3 38 -3.4 26
10:05 1022 30.18 851 25.13 9.9 49.9 40 -3.1 26.4
10:10 1022 30.18 851 25.13 10 50 39 -3.2 26.2
10:15 1022 30.18 851 25.13 9.9 49.8 40 -3.1 26.5
10:20 1022 30.18 851 25.13 10.4 50.8 38 -3.3 26.1
10:25 1022 30.18 851 25.13 10.6 51 38 -3.2 26.3
10:30 1022 30.18 851 25.13 10.8 51.4 37 -3.2 26.2
10:35 1022 30.18 851 25.13 10.9 51.6 37 -3.2 26.3
10:40 1022 30.18 851 25.13 11.3 52.3 37 -3 26.6
10:45 1022 30.18 851 25.13 10.8 51.4 37 -3.4 25.8
10:50 1022 30.18 851 25.13 10.9 51.7 38 -2.8 26.9
10:55 1022 30.18 851 25.13 10.5 50.9 38 -3.3 26
11:00 1022 30.18 851 25.13 11.2 52.1 36 -3.5 25.8
11:05 1022 30.18 851 25.13 11.2 52.2 38 -2.6 27.4
11:10 1022 30.18 851 25.13 11.3 52.3 35 -3.6 25.5
11:15 1022 30.18 851 25.13 11.1 52.1 36 -3.3 26.1
11:20 1022 30.18 851 25.13 11.5 52.8 34 -3.7 25.3
11:25 1022 30.18 851 25.13 11.2 52.2 34 -4.2 24.5
11:30 1022 30.18 851 25.13 11.9 53.3 32 -4.2 24.5
11:35 1022 30.18 851 25.13 11.5 52.7 34 -3.6 25.4
11:40 1022 30.18 851 25.13 12 53.5 33 -3.6 25.5
11:45 1022 30.18 851 25.13 12.4 54.4 32 -3.6 25.4
11:50 1022 30.18 851 25.13 12.8 55 32 -3.3 26
11:55 1022 30.18 851 25.13 12.2 54 32 -4 24.8
12:00 1022 30.18 851 25.13 13 55.4 32 -3.2 26.3
12:05 1022 30.18 851 25.13 12.7 54.8 34 -2.8 27
12:10 1022 30.18 851 25.13 12.6 54.6 30 -4.6 23.7
12:15 1022 30.18 851 25.13 13 55.3 31 -3.9 25
12:20 1022 30.18 851 25.13 13.5 56.2 30 -3.6 25.6
12:25 1022 30.18 851 25.13 13.2 55.8 31 -3.5 25.7
12:30 1021 30.15 851 25.13 13.9 56.9 29 -3.6 25.5
12:35 1021 30.15 851 25.13 14.1 57.4 30 -3.2 26.2
12:40 1021 30.15 851 25.13 13.7 56.7 31 -3.2 26.2
12:45 1021 30.15 850 25.1 13.5 56.2 30 -3.8 25.1
12:50 1021 30.15 850 25.1 13.6 56.5 30 -3.7 25.4
12:55 1021 30.15 850 25.1 14 57.2 29 -3.7 25.3
13:00 1021 30.15 850 25.1 13.7 56.7 31 -3.1 26.4
13:05 1021 30.15 850 25.1 13.6 56.4 31 -3.4 25.9
13:10 1021 30.15 850 25.1 13.8 56.8 30 -3.2 26.2
13:15 1021 30.15 850 25.1 14.2 57.6 29 -3.4 25.8
13:20 1021 30.15 850 25.1 13.6 56.5 29 -4 24.8
13:25 1021 30.15 850 25.1 14.7 58.5 28 -3.7 25.4
13:30 1021 30.15 850 25.1 14.7 58.5 27 -3.9 25
13:35 1021 30.15 850 25.1 16 60.8 25 -3.9 25
13:40 1021 30.15 850 25.1 15.9 60.6 25 -4.1 24.6
13:45 1021 30.15 850 25.1 15.3 59.6 27 -3.7 25.4
13:50 1021 30.15 850 25.1 14.4 57.9 28 -3.8 25.1
13:55 1021 30.15 850 25.1 14.2 57.5 28 -4 24.7
14:00 1021 30.15 850 25.1 14.6 58.2 27 -4.1 24.7
14:05 1021 30.15 850 25.1 14.5 58.1 27 -4.3 24.2
14:10 1021 30.15 850 25.1 15.2 59.4 26 -4 24.8
14:15 1021 30.15 850 25.1 15.1 59.2 25 -4.4 24
14:20 1021 30.15 850 25.1 15.9 60.6 26 -3.3 26
14:25 1021 30.15 850 25.1 16.1 60.9 25 -3.7 25.3
14:30 1021 30.15 850 25.1 16.2 61.2 25 -3.6 25.6
14:35 1021 30.15 850 25.1 15.1 59.2 27 -3.5 25.6
14:40 1020 30.12 850 25.1 14.6 58.2 28 -3.5 25.7
14:45 1020 30.12 850 25.1 15.6 60 25 -4.1 24.7
14:50 1020 30.12 850 25.1 16.5 61.7 25 -3.6 25.6
14:55 1020 30.12 850 25.1 16.1 61 26 -3.2 26.2
15:00 1020 30.12 849 25.07 15.9 60.6 25 -4 24.9
15:05 1020 30.12 850 25.1 16.6 61.9 25 -3.5 25.6
15:10 1020 30.12 850 25.1 16.8 62.2 24 -3.9 25
15:15 1020 30.12 849 25.07 16.8 62.3 24 -3.5 25.6
15:20 1020 30.12 849 25.07 16.8 62.3 24 -3.6 25.6
15:25 1020 30.12 849 25.07 16.5 61.7 26 -3.1 26.5
15:30 1020 30.12 849 25.07 15.1 59.1 27 -3.8 25.1
15:35 1020 30.12 849 25.07 16.1 61 25 -4.1 24.7
15:40 1020 30.12 849 25.07 16.6 61.9 25 -3.6 25.5
15:45 1020 30.12 849 25.07 16.9 62.4 24 -3.6 25.6
15:50 1020 30.12 849 25.07 16.1 61 27 -3 26.6
15:55 1020 30.12 849 25.07 15.7 60.2 26 -3.6 25.5
16:00 1020 30.12 849 25.07 16.4 61.6 25 -3.8 25.2
16:05 1020 30.12 849 25.07 16.3 61.4 25 -3.7 25.3
16:10 1020 30.12 849 25.07 17.1 62.7 24 -3.8 25.2
16:15 1020 30.12 849 25.07 16.9 62.4 26 -2.7 27.2
16:20 1020 30.12 849 25.07 17.1 62.8 25 -3.2 26.3
16:25 1020 30.12 849 25.07 16.9 62.3 24 -3.7 25.3
16:30 1020 30.12 849 25.07 17 62.6 23 -3.9 24.9
16:35 1020 30.12 849 25.07 17.3 63.2 23 -4.1 24.5
16:40 1020 30.12 849 25.07 17.5 63.6 23 -3.5 25.7
16:45 1020 30.12 849 25.07 17.1 62.8 23 -4.1 24.7
16:50 1020 30.12 849 25.07 15.9 60.7 25 -4.2 24.4
16:55 1020 30.12 849 25.07 16.3 61.4 24 -4.2 24.5
17:00 1020 30.12 849 25.07 16.5 61.7 25 -3.8 25.2
17:05 1020 30.12 849 25.07 16.8 62.2 24 -4 24.8
17:10 1020 30.12 849 25.07 16.8 62.2 23 -4.6 23.7
17:15 1020 30.12 849 25.07 17 62.6 23 -4 24.8
17:20 1020 30.12 849 25.07 16 60.7 25 -3.7 25.3
17:25 1020 30.12 849 25.07 16.6 61.9 23 -4.6 23.7
17:30 1020 30.12 849 25.07 17 62.5 24 -3.9 24.9
17:35 1020 30.12 849 25.07 16 60.7 24 -4.7 23.6
17:40 1020 30.12 849 25.07 16.5 61.7 24 -4.1 24.7
17:45 1020 30.12 849 25.07 16.8 62.3 22 -4.8 23.4
17:50 1020 30.12 849 25.07 16.2 61.2 24 -4.1 24.6
17:55 1020 30.12 849 25.07 16 60.8 23 -4.9 23.2
18:00 1020 30.12 849 25.07 17 62.7 22 -4.6 23.6
18:05 1020 30.12 849 25.07 16.7 62.1 23 -4.5 23.9
18:10 1020 30.12 849 25.07 16.6 61.8 23 -4.5 24
18:15 1020 30.12 849 25.07 16.6 61.8 23 -4.5 24
18:20 1020 30.12 849 25.07 15.9 60.6 23 -4.9 23.2
18:25 1020 30.12 849 25.07 15.7 60.2 25 -4.2 24.4
18:30 1020 30.12 849 25.07 15.7 60.2 23 -5.3 22.4
18:35 1020 30.12 849 25.07 15.6 60.1 24 -4.9 23.2
18:40 1020 30.12 849 25.07 15.3 59.5 24 -5.3 22.5
18:45 1020 30.12 849 25.07 15.1 59.2 24 -5.3 22.4
18:50 1020 30.12 849 25.07 15.1 59.1 24 -5.1 22.8
18:55 1020 30.12 849 25.07 15.2 59.4 24 -5.2 22.7
19:00 1020 30.12 849 25.07 15.4 59.7 24 -5.3 22.5
19:05 1020 30.12 849 25.07 15.4 59.7 23 -5.3 22.5
19:10 1020 30.12 849 25.07 15.3 59.6 24 -5.2 22.7
19:15 1020 30.12 849 25.07 15.3 59.5 23 -5.4 22.3
19:20 1020 30.12 849 25.07 15.2 59.4 24 -5.4 22.4
19:25 1020 30.12 849 25.07 15.2 59.4 23 -5.5 22.2
19:30 1020 30.12 849 25.07 15.1 59.2 23 -5.6 22
19:35 1020 30.12 849 25.07 15 59.1 23 -5.8 21.6
19:40 1020 30.12 849 25.07 14.9 58.8 23 -5.7 21.8
19:45 1020 30.12 849 25.07 14.8 58.6 23 -6.2 20.9
19:50 1020 30.12 849 25.07 14.6 58.3 23 -6.4 20.5
19:55 1020 30.12 849 25.07 14.5 58.1 22 -6.7 19.9
20:00 1020 30.12 849 25.07 14.4 57.9 23 -6.5 20.3
20:05 1020 30.12 849 25.07 14.3 57.7 24 -6.2 20.8
20:10 1020 30.12 849 25.07 14.1 57.5 24 -6.2 20.9
20:15 1020 30.12 850 25.1 14 57.1 24 -6.1 21
20:20 1020 30.12 850 25.1 13.8 56.8 24 -6.3 20.7
20:25 1020 30.12 850 25.1 13.6 56.4 25 -6.1 21.1
20:30 1020 30.12 850 25.1 13.4 56.1 25 -6 21.2
20:35 1020 30.12 850 25.1 13.2 55.7 26 -5.8 21.6
20:40 1020 30.12 850 25.1 12.9 55.2 28 -5.1 22.9
20:45 1020 30.12 850 25.1 12.5 54.5 28 -5.5 22.2
20:50 1021 30.15 850 25.1 12.3 54.2 28 -5.5 22
20:55 1021 30.15 850 25.1 12.1 53.8 32 -4.2 24.5
21:00 1021 30.15 850 25.1 11.5 52.7 34 -3.9 25
21:05 1021 30.15 850 25.1 10.9 51.5 37 -3.1 26.5
21:10 1021 30.15 850 25.1 10.1 50.2 39 -3.1 26.5
21:15 1021 30.15 850 25.1 9.8 49.6 41 -3 26.6
21:20 1021 30.15 850 25.1 9.4 48.9 41 -3.2 26.2
21:25 1021 30.15 850 25.1 9.3 48.7 40 -3.4 25.8
21:30 1021 30.15 850 25.1 9.1 48.5 41 -3.5 25.8
21:35 1021 30.15 850 25.1 8.9 48.1 42 -3.3 26.1
21:40 1021 30.15 850 25.1 8.7 47.7 43 -3.2 26.2
21:45 1021 30.15 850 25.1 8.4 47.2 43 -3.5 25.7
21:50 1021 30.15 850 25.1 8.4 47.1 42 -3.8 25.1
21:55 1021 30.15 850 25.1 8.4 47.1 41 -4.1 24.7
22:00 1021 30.15 850 25.1 8.5 47.3 42 -3.8 25.2
22:05 1021 30.15 850 25.1 8.3 46.9 43 -3.7 25.4
22:10 1021 30.15 850 25.1 8.1 46.5 44 -3.5 25.7
22:15 1021 30.15 850 25.1 7.8 46.1 44 -3.8 25.2
22:20 1021 30.15 850 25.1 7.6 45.7 45 -3.6 25.5
22:25 1021 30.15 850 25.1 7.4 45.2 45 -3.7 25.4
22:30 1021 30.15 850 25.1 7.1 44.9 46 -3.8 25.2
22:35 1021 30.15 850 25.1 7 44.5 46 -3.8 25.2
22:40 1021 30.15 850 25.1 6.9 44.4 44 -4.4 24.1
22:45 1021 30.15 850 25.1 7 44.6 45 -4.2 24.5
22:50 1021 30.15 850 25.1 6.9 44.5 45 -4.2 24.4
22:55 1021 30.15 850 25.1 6.8 44.2 46 -4.1 24.6
23:00 1021 30.15 850 25.1 6.6 43.9 46 -4.3 24.3
23:05 1021 30.15 850 25.1 6.6 43.9 45 -4.6 23.8
23:10 1021 30.15 850 25.1 6.8 44.2 44 -4.7 23.5
23:15 1021 30.15 850 25.1 7 44.6 42 -4.9 23.1
23:20 1021 30.15 850 25.1 7.1 44.8 42 -4.9 23.2
23:25 1021 30.15 850 25.1 6.9 44.5 44 -4.4 24.1
23:30 1021 30.15 850 25.1 6.4 43.5 46 -4.3 24.2
23:35 1021 30.15 850 25.1 6 42.8 48 -4.1 24.6
23:40 1021 30.15 850 25.1 5.7 42.3 49 -4.2 24.4
23:45 1021 30.15 850 25.1 5.9 42.6 48 -4.2 24.4
23:50 1021 30.15 850 25.1 5.7 42.3 48 -4.3 24.2
23:55 1021 30.15 850 25.1 5.7 42.3 48 -4.4 24.1
24:00 1021 30.15 850 25.1 5.8 42.4 48 -4.5 23.9